Current Conditions
Mostly Cloudy
Conditions



Pressure
29.98 (inHG) - 1015.22 (mb)
Visibility

10.0 (mimiles) - 16.1 (km)
   Temperature
75  °F
24°C
72  °F
Dewpoint
89  %
 Humidity
   Wind Speed
0  mph
0  kts
0  km/h
0  m/s
   Wind Direction
Calm
Due North
   Airport Data
KPDK
Location Dekalb-Peachtree 20 mi (32.18 km)
Metar :KPDK 031153Z 00000KT 10SM BKN100 24/22 A2998 RMK AO2 SLP135 70004 T02440222 10244 20217 53007
Fri 3rd July 07:53 am
   Raw Metar Info
Raw METAR is the most common format in the world for the transmission of observational weather data. It is highly standardized through the International Civil Aviation Organization (ICAO), which allows it to be understood throughout most of the world.
   API Info
Data Provided by
https://www.checkwx.com/weather/KPDK
   © Info
CSS/SVG/PHP scripts were developed by weather34.com for use in the weather34 template © 2015-2020

Guide Info provided by Metar-Wikipedia